createdAt,value
2023-03-17T00:01:17.256Z,6.20
2023-03-17T00:03:47.222Z,6.88
2023-03-17T00:06:17.514Z,5.13
2023-03-17T00:08:46.315Z,6.22
2023-03-17T00:11:15.190Z,6.55
2023-03-17T00:13:44.544Z,7.10
2023-03-17T00:16:16.865Z,7.63
2023-03-17T00:18:44.765Z,7.80
2023-03-17T00:21:15.599Z,5.85
2023-03-17T00:23:47.914Z,5.72
2023-03-17T00:26:16.082Z,6.33
2023-03-17T00:28:45.656Z,6.78
2023-03-17T00:31:16.611Z,5.38
2023-03-17T00:33:46.469Z,5.55
2023-03-17T00:36:17.934Z,6.65
2023-03-17T00:38:46.003Z,6.93
2023-03-17T00:41:13.708Z,6.60
2023-03-17T00:43:41.968Z,7.00
2023-03-17T00:46:14.607Z,5.35
2023-03-17T00:48:43.418Z,6.85
2023-03-17T00:51:12.594Z,5.97
2023-03-17T00:53:40.673Z,6.15
2023-03-17T00:56:15.478Z,6.57
2023-03-17T00:58:44.586Z,5.00
2023-03-17T01:01:14.033Z,5.28
2023-03-17T01:03:41.862Z,5.87
2023-03-17T01:06:12.550Z,5.90
2023-03-17T01:08:41.525Z,7.32
2023-03-17T01:11:16.227Z,7.15
2023-03-17T01:13:43.889Z,7.07
2023-03-17T01:16:12.351Z,5.53
2023-03-17T01:18:41.359Z,6.18
2023-03-17T01:21:09.198Z,5.78
2023-03-17T01:23:37.325Z,6.90
2023-03-17T01:26:05.058Z,6.72
2023-03-17T01:28:32.593Z,5.37
2023-03-17T01:31:00.479Z,6.95
2023-03-17T01:33:27.990Z,5.93
2023-03-17T01:35:57.354Z,6.45
2023-03-17T01:38:25.534Z,5.60
2023-03-17T01:40:54.774Z,5.77
2023-03-17T01:43:24.356Z,6.63
2023-03-17T01:46:25.015Z,5.78
2023-03-17T01:49:04.374Z,5.85
2023-03-17T01:51:38.601Z,6.22
2023-03-17T01:54:09.315Z,5.80
2023-03-17T01:56:38.885Z,8.00
2023-03-17T01:59:09.490Z,5.40
2023-03-17T02:01:42.079Z,7.53
2023-03-17T02:04:11.574Z,5.72
2023-03-17T02:06:56.800Z,6.13
2023-03-17T02:09:25.290Z,6.20
2023-03-17T02:11:54.368Z,6.90
2023-03-17T02:14:22.135Z,5.78
2023-03-17T02:16:49.813Z,7.25
2023-03-17T02:19:17.405Z,7.07
2023-03-17T02:21:48.138Z,5.97
2023-03-17T02:24:26.347Z,8.23
2023-03-17T02:26:56.567Z,6.40
2023-03-17T02:29:24.763Z,7.22
2023-03-17T02:31:53.378Z,7.00
2023-03-17T02:34:22.516Z,7.13
2023-03-17T02:36:51.374Z,7.80
2023-03-17T02:39:19.356Z,6.38
2023-03-17T02:41:47.761Z,7.38
2023-03-17T02:44:15.842Z,6.50
2023-03-17T02:46:43.429Z,7.07
2023-03-17T02:49:11.915Z,8.93
2023-03-17T02:51:39.632Z,7.00
2023-03-17T02:54:08.898Z,5.68
2023-03-17T02:56:36.635Z,7.10
2023-03-17T02:59:04.252Z,7.22
2023-03-17T03:01:32.114Z,8.73
2023-03-17T03:03:59.719Z,6.35
2023-03-17T03:06:27.387Z,6.93
2023-03-17T03:08:55.017Z,7.03
2023-03-17T03:11:24.177Z,7.50
2023-03-17T03:13:51.833Z,7.60
2023-03-17T03:16:19.426Z,6.60
2023-03-17T03:18:47.170Z,6.15
2023-03-17T03:21:15.361Z,6.67
2023-03-17T03:23:43.229Z,8.40
2023-03-17T03:26:10.886Z,6.18
2023-03-17T03:28:39.916Z,6.55
2023-03-17T03:31:07.806Z,6.35
2023-03-17T03:33:36.384Z,5.60
2023-03-17T03:36:04.144Z,7.32
2023-03-17T03:38:31.722Z,6.13
2023-03-17T03:40:59.244Z,6.80
2023-03-17T03:43:27.002Z,7.93
2023-03-17T03:45:55.893Z,7.20
2023-03-17T03:48:23.774Z,7.85
2023-03-17T03:50:51.315Z,11.23
2023-03-17T03:53:18.910Z,7.38
2023-03-17T03:55:46.614Z,7.25
2023-03-17T03:58:14.152Z,6.93
2023-03-17T04:00:41.743Z,6.43
2023-03-17T04:03:10.773Z,6.55
2023-03-17T04:05:38.289Z,6.85
2023-03-17T04:08:06.610Z,6.90
2023-03-17T04:10:34.257Z,7.10
2023-03-17T04:13:01.815Z,7.82
2023-03-17T04:15:29.698Z,8.30
2023-03-17T04:17:57.392Z,7.32
2023-03-17T04:20:26.617Z,6.60
2023-03-17T04:22:54.269Z,7.77
2023-03-17T04:25:21.817Z,8.20
2023-03-17T04:27:49.541Z,7.63
2023-03-17T04:30:17.690Z,7.82
2023-03-17T04:32:46.341Z,8.52
2023-03-17T04:35:16.663Z,7.17
2023-03-17T04:37:46.476Z,7.72
2023-03-17T04:40:14.850Z,8.45
2023-03-17T04:42:42.509Z,8.43
2023-03-17T04:45:12.511Z,8.23
2023-03-17T04:47:40.486Z,7.87
2023-03-17T04:50:09.012Z,8.82
2023-03-17T04:52:37.384Z,6.63
2023-03-17T04:55:09.166Z,8.40
2023-03-17T04:57:36.997Z,8.50
2023-03-17T05:00:06.227Z,7.20
2023-03-17T05:02:33.806Z,7.68
2023-03-17T05:05:01.989Z,7.82
2023-03-17T05:07:29.579Z,9.50
2023-03-17T05:09:57.815Z,8.38
2023-03-17T05:12:26.913Z,6.87
2023-03-17T05:14:54.452Z,8.65
2023-03-17T05:17:22.014Z,10.88
2023-03-17T05:19:50.258Z,8.10
2023-03-17T05:22:17.828Z,8.43
2023-03-17T05:24:45.480Z,9.93
2023-03-17T05:27:12.992Z,7.10
2023-03-17T05:29:42.275Z,9.30
2023-03-17T05:32:09.961Z,7.05
2023-03-17T05:34:37.506Z,9.30
2023-03-17T05:37:05.061Z,9.33
2023-03-17T05:39:32.774Z,9.38
2023-03-17T05:42:00.485Z,8.48
2023-03-17T05:44:28.105Z,7.68
2023-03-17T05:46:59.542Z,9.25
2023-03-17T05:49:27.555Z,8.70
2023-03-17T05:51:55.253Z,10.07
2023-03-17T05:54:23.989Z,9.05
2023-03-17T05:56:51.559Z,9.05
2023-03-17T05:59:19.125Z,8.20
2023-03-17T06:01:46.933Z,10.63
2023-03-17T06:04:15.901Z,10.93
2023-03-17T06:06:43.674Z,10.35
2023-03-17T06:09:11.216Z,9.52
2023-03-17T06:11:38.876Z,9.13
2023-03-17T06:14:07.210Z,9.17
2023-03-17T06:16:34.754Z,8.18
2023-03-17T06:19:02.442Z,11.68
2023-03-17T06:21:31.394Z,7.45
2023-03-17T06:23:58.948Z,8.68
2023-03-17T06:26:27.109Z,11.20
2023-03-17T06:28:54.690Z,9.30
2023-03-17T06:31:23.844Z,8.68
2023-03-17T06:33:52.068Z,8.65
2023-03-17T06:36:19.660Z,9.38
2023-03-17T06:38:48.598Z,8.07
2023-03-17T06:41:16.209Z,10.90
2023-03-17T06:43:43.706Z,8.90
2023-03-17T06:46:11.363Z,8.82
2023-03-17T06:48:39.193Z,9.52
2023-03-17T06:51:07.139Z,9.63
2023-03-17T06:53:34.652Z,9.07
2023-03-17T06:56:04.934Z,8.75
2023-03-17T06:58:33.073Z,10.55
2023-03-17T07:01:00.653Z,8.65
2023-03-17T07:03:28.577Z,8.50
2023-03-17T07:05:56.132Z,10.20
2023-03-17T07:08:23.678Z,8.20
2023-03-17T07:10:51.401Z,8.52
2023-03-17T07:13:20.839Z,9.73
2023-03-17T07:15:49.751Z,9.77
2023-03-17T07:18:18.777Z,11.45
2023-03-17T07:20:46.788Z,9.90
2023-03-17T07:23:16.361Z,8.57
2023-03-17T07:25:45.512Z,10.15
2023-03-17T07:28:13.022Z,9.00
2023-03-17T07:30:46.467Z,9.68
2023-03-17T07:33:14.541Z,9.77
2023-03-17T07:35:42.503Z,8.23
2023-03-17T07:38:10.170Z,9.02
2023-03-17T07:40:38.681Z,9.33
2023-03-17T07:43:06.530Z,10.85
2023-03-17T07:45:35.882Z,11.35
2023-03-17T07:48:05.867Z,8.25
2023-03-17T07:50:33.482Z,12.48
2023-03-17T07:53:01.508Z,8.73
2023-03-17T07:55:29.238Z,12.10
2023-03-17T07:57:57.425Z,9.77
2023-03-17T08:00:27.006Z,7.90
2023-03-17T08:03:09.005Z,9.35
2023-03-17T08:05:39.574Z,11.40
2023-03-17T08:08:07.426Z,8.65
2023-03-17T08:10:35.621Z,9.27
2023-03-17T08:13:03.966Z,10.60
2023-03-17T08:15:31.721Z,8.85
2023-03-17T08:17:59.531Z,8.60
2023-03-17T08:20:27.157Z,9.70
2023-03-17T08:22:57.202Z,9.70
2023-03-17T08:25:24.946Z,11.38
2023-03-17T08:27:52.724Z,8.55
2023-03-17T08:30:21.695Z,10.13
2023-03-17T08:32:49.304Z,8.95
2023-03-17T08:35:18.483Z,10.27
2023-03-17T08:37:47.471Z,7.97
2023-03-17T08:40:19.641Z,9.73
2023-03-17T08:42:49.027Z,8.13
2023-03-17T08:45:19.297Z,10.02
2023-03-17T08:47:47.662Z,9.20
2023-03-17T08:50:20.013Z,8.95
2023-03-17T08:52:48.612Z,10.07
2023-03-17T08:55:17.617Z,8.60
2023-03-17T08:57:46.135Z,10.23
2023-03-17T09:00:16.102Z,7.88
2023-03-17T09:02:44.989Z,8.15
2023-03-17T09:05:14.783Z,10.02
2023-03-17T09:07:43.514Z,8.63
2023-03-17T09:10:13.565Z,8.07
2023-03-17T09:12:42.755Z,9.80
2023-03-17T09:15:12.321Z,8.80
2023-03-17T09:17:39.902Z,8.23
2023-03-17T09:20:08.661Z,8.20
2023-03-17T09:22:36.193Z,7.40
2023-03-17T09:25:04.181Z,10.23
2023-03-17T09:27:31.726Z,8.68
2023-03-17T09:30:00.787Z,9.68
2023-03-17T09:32:28.357Z,8.20
2023-03-17T09:34:56.179Z,8.48
2023-03-17T09:37:23.890Z,7.90
2023-03-17T09:39:51.848Z,11.27
2023-03-17T09:42:34.689Z,8.10
2023-03-17T09:45:13.933Z,7.90
2023-03-17T09:47:58.322Z,7.05
2023-03-17T09:50:30.231Z,6.50
2023-03-17T09:52:59.055Z,8.57
2023-03-17T09:55:29.964Z,8.07
2023-03-17T09:57:58.712Z,6.93
2023-03-17T10:00:31.071Z,7.68
2023-03-17T10:02:59.654Z,7.05
2023-03-17T10:05:30.238Z,6.63
2023-03-17T10:08:18.947Z,8.88
2023-03-17T10:10:58.686Z,8.17
2023-03-17T10:13:38.123Z,10.00
2023-03-17T10:16:10.413Z,8.10
2023-03-17T10:18:44.806Z,7.75
2023-03-17T10:21:16.882Z,7.32
2023-03-17T10:23:46.291Z,9.73
2023-03-17T10:26:25.253Z,10.32
2023-03-17T10:28:54.284Z,6.85
2023-03-17T10:31:32.937Z,8.35
2023-03-17T10:34:14.328Z,8.07
2023-03-17T10:36:44.907Z,8.53
2023-03-17T10:39:15.134Z,6.00
2023-03-17T10:41:55.251Z,8.07
2023-03-17T10:44:30.658Z,6.78
2023-03-17T10:46:59.611Z,6.38
2023-03-17T10:49:27.197Z,9.17
2023-03-17T10:51:55.494Z,6.45
2023-03-17T10:54:26.410Z,7.57
2023-03-17T10:57:02.093Z,6.63
2023-03-17T11:02:20.159Z,7.43
2023-03-17T11:04:48.355Z,7.25
2023-03-17T11:07:18.810Z,7.70
2023-03-17T11:09:50.639Z,6.82
2023-03-17T11:12:26.321Z,7.70
2023-03-17T11:15:00.320Z,13.40
2023-03-17T11:17:43.794Z,5.97
2023-03-17T11:20:32.294Z,6.10
2023-03-17T11:23:05.786Z,7.10
2023-03-17T11:25:36.961Z,6.00
2023-03-17T11:28:17.757Z,6.37
2023-03-17T11:30:50.106Z,7.18
2023-03-17T11:33:33.554Z,7.65
2023-03-17T11:36:07.172Z,6.60
2023-03-17T11:38:38.783Z,6.95
2023-03-17T11:41:35.642Z,6.03
2023-03-17T11:44:28.889Z,5.60
2023-03-17T11:47:07.349Z,8.60
2023-03-17T11:49:38.563Z,6.05
2023-03-17T11:52:21.878Z,5.55
2023-03-17T11:54:59.029Z,6.87
2023-03-17T11:57:32.196Z,11.25
2023-03-17T12:00:03.254Z,7.38
2023-03-17T12:02:44.428Z,5.28
2023-03-17T12:05:16.812Z,7.45
2023-03-17T12:07:48.918Z,7.90
2023-03-17T12:10:23.463Z,6.68
2023-03-17T12:12:56.321Z,7.68
2023-03-17T12:15:32.357Z,6.32
2023-03-17T12:18:06.789Z,7.07
2023-03-17T12:20:46.295Z,5.47
2023-03-17T12:23:22.349Z,7.35
2023-03-17T12:25:57.557Z,7.47
2023-03-17T12:28:28.381Z,7.15
2023-03-17T12:31:02.205Z,7.07
2023-03-17T12:33:35.463Z,8.53
2023-03-17T12:36:05.286Z,10.00
2023-03-17T12:38:39.010Z,8.48
2023-03-17T12:41:29.622Z,5.85
2023-03-17T12:44:05.791Z,6.45
2023-03-17T12:46:50.181Z,5.53
2023-03-17T12:49:34.790Z,6.70
2023-03-17T12:52:14.334Z,6.25
2023-03-17T12:54:47.797Z,5.32
2023-03-17T12:57:19.116Z,5.93
2023-03-17T12:59:49.708Z,5.93
2023-03-17T13:02:25.290Z,8.70
2023-03-17T13:04:57.897Z,6.15
2023-03-17T13:07:32.453Z,7.07
2023-03-17T13:10:22.009Z,5.90
2023-03-17T13:13:10.997Z,8.70
2023-03-17T13:15:59.769Z,5.50
2023-03-17T13:18:51.306Z,21.05
2023-03-17T13:21:26.317Z,5.55
2023-03-17T13:24:01.270Z,5.65
2023-03-17T13:27:01.794Z,6.57
2023-03-17T13:29:53.579Z,7.63
2023-03-17T13:32:38.173Z,6.28
2023-03-17T13:35:40.108Z,7.32
2023-03-17T13:38:32.525Z,6.18
2023-03-17T13:41:19.967Z,6.67
2023-03-17T13:44:06.896Z,7.43
2023-03-17T13:46:42.622Z,6.05
2023-03-17T13:49:24.401Z,6.50
2023-03-17T13:51:59.936Z,6.30
2023-03-17T13:54:33.635Z,6.93
2023-03-17T13:57:24.677Z,6.22
2023-03-17T14:00:00.699Z,8.02
2023-03-17T14:02:32.565Z,5.75
2023-03-17T14:05:03.268Z,19.35
2023-03-17T14:07:42.276Z,8.87
2023-03-17T14:10:17.985Z,5.82
2023-03-17T14:12:53.089Z,6.40
2023-03-17T14:15:26.011Z,6.60
2023-03-17T14:17:58.412Z,6.57
2023-03-17T14:20:28.279Z,5.13
2023-03-17T14:22:58.143Z,5.82
2023-03-17T14:25:27.609Z,7.55
2023-03-17T14:27:58.844Z,5.13
2023-03-17T14:30:30.457Z,7.03
2023-03-17T14:33:04.505Z,6.30
2023-03-17T14:35:33.793Z,5.97
2023-03-17T14:38:02.669Z,5.05
2023-03-17T14:40:36.669Z,6.68
2023-03-17T14:43:06.134Z,7.70
2023-03-17T14:45:48.603Z,6.37
2023-03-17T14:48:18.685Z,4.70
2023-03-17T14:50:52.093Z,6.00
2023-03-17T14:53:22.350Z,6.85
2023-03-17T14:55:49.904Z,6.10
2023-03-17T14:58:25.231Z,5.67
2023-03-17T15:00:58.119Z,6.80
2023-03-17T15:03:31.511Z,4.72
2023-03-17T15:06:08.161Z,5.45
2023-03-17T15:08:47.078Z,5.28
2023-03-17T15:11:21.373Z,8.60
2023-03-17T15:13:51.636Z,5.05
2023-03-17T15:16:23.769Z,4.90
2023-03-17T15:18:58.289Z,5.60
2023-03-17T15:21:33.546Z,5.13
2023-03-17T15:24:05.721Z,4.90
2023-03-17T15:26:33.433Z,6.40
2023-03-17T15:29:02.383Z,6.85
2023-03-17T15:31:30.646Z,6.40
2023-03-17T15:33:58.967Z,4.63
2023-03-17T15:36:32.616Z,6.30
2023-03-17T15:39:00.517Z,5.85
2023-03-17T15:41:28.121Z,7.07
2023-03-17T15:43:56.708Z,7.70
2023-03-17T15:46:30.713Z,8.02
2023-03-17T15:48:58.767Z,4.40
2023-03-17T15:51:26.378Z,5.80
2023-03-17T15:53:53.933Z,5.35
2023-03-17T15:56:22.353Z,7.70
2023-03-17T15:58:52.131Z,5.40
2023-03-17T16:01:20.894Z,6.23
2023-03-17T16:03:50.465Z,6.72
2023-03-17T16:06:19.309Z,5.38
2023-03-17T16:08:46.886Z,6.50
2023-03-17T16:11:19.211Z,6.38
2023-03-17T16:13:48.063Z,6.10
2023-03-17T16:16:22.574Z,5.22
2023-03-17T16:18:52.505Z,6.45
2023-03-17T16:21:20.808Z,8.13
2023-03-17T16:23:49.739Z,5.63
2023-03-17T16:26:17.391Z,7.27
2023-03-17T16:28:46.253Z,6.95
2023-03-17T16:31:32.020Z,13.25
2023-03-17T16:34:01.415Z,10.73
2023-03-17T16:36:29.189Z,7.93
2023-03-17T16:38:57.053Z,6.73
2023-03-17T16:41:27.190Z,7.57
2023-03-17T16:43:59.802Z,8.43
2023-03-17T16:46:28.942Z,6.95
2023-03-17T16:48:56.580Z,7.32
2023-03-17T16:51:25.662Z,5.23
2023-03-17T16:53:53.349Z,10.02
2023-03-17T16:56:23.774Z,8.10
2023-03-17T16:58:51.689Z,7.03
2023-03-17T17:01:22.602Z,8.70
2023-03-17T17:03:50.500Z,7.93
2023-03-17T17:06:20.561Z,7.65
2023-03-17T17:08:50.802Z,7.18
2023-03-17T17:11:19.995Z,7.20
2023-03-17T17:13:49.024Z,7.20
2023-03-17T17:16:21.254Z,6.70
2023-03-17T17:18:48.962Z,8.40
2023-03-17T17:21:16.644Z,6.90
2023-03-17T17:23:44.130Z,8.25
2023-03-17T17:26:13.017Z,8.18
2023-03-17T17:28:40.564Z,7.73
2023-03-17T17:31:09.188Z,9.13
2023-03-17T17:33:38.265Z,5.93
2023-03-17T17:36:08.918Z,8.18
2023-03-17T17:38:36.452Z,6.55
2023-03-17T17:41:05.683Z,7.43
2023-03-17T17:43:34.654Z,6.45
2023-03-17T17:46:02.263Z,9.80
2023-03-17T17:48:30.335Z,18.65
2023-03-17T17:50:58.719Z,11.07
2023-03-17T17:53:26.285Z,6.40
2023-03-17T17:55:53.847Z,10.30
2023-03-17T17:58:23.435Z,6.53
2023-03-17T18:00:54.955Z,10.38
2023-03-17T18:03:25.093Z,7.18
2023-03-17T18:05:53.233Z,7.17
2023-03-17T18:08:21.038Z,7.28
2023-03-17T18:10:51.444Z,8.80
2023-03-17T18:13:19.455Z,7.30
2023-03-17T18:15:47.043Z,7.07
2023-03-17T18:18:15.933Z,8.10
2023-03-17T18:20:43.527Z,8.93
2023-03-17T18:23:11.225Z,8.32
2023-03-17T18:25:38.728Z,7.07
2023-03-17T18:28:06.377Z,6.13
2023-03-17T18:30:34.996Z,8.17
2023-03-17T18:33:07.385Z,7.78
2023-03-17T18:35:36.616Z,7.50
2023-03-17T18:38:04.466Z,6.80
2023-03-17T18:40:32.263Z,7.70
2023-03-17T18:42:59.803Z,6.40
2023-03-17T18:45:27.586Z,6.28
2023-03-17T18:47:55.345Z,7.10
2023-03-17T18:50:23.052Z,7.18
2023-03-17T18:52:51.978Z,7.35
2023-03-17T18:55:19.924Z,6.97
2023-03-17T18:57:47.514Z,7.88
2023-03-17T19:00:18.485Z,9.23
2023-03-17T19:02:46.872Z,10.20
2023-03-17T19:05:15.236Z,9.13
2023-03-17T19:07:43.226Z,8.27
2023-03-17T19:10:13.849Z,8.68
2023-03-17T19:12:42.290Z,9.13
2023-03-17T19:15:12.352Z,8.85
2023-03-17T19:17:40.204Z,9.13
2023-03-17T19:20:09.932Z,7.33
2023-03-17T19:22:37.613Z,8.70
2023-03-17T19:25:06.229Z,12.40
2023-03-17T19:27:35.282Z,13.20
2023-03-17T19:30:02.833Z,13.15
2023-03-17T19:32:30.398Z,13.10
2023-03-17T19:34:57.954Z,9.45
2023-03-17T19:37:25.933Z,8.98
2023-03-17T19:39:53.518Z,11.10
2023-03-17T19:42:21.081Z,21.95
2023-03-17T19:44:49.962Z,16.00
2023-03-17T19:47:17.549Z,14.55
2023-03-17T19:49:45.850Z,14.70
2023-03-17T19:52:13.493Z,13.93
2023-03-17T19:54:44.541Z,9.07
2023-03-17T19:57:13.098Z,8.37
2023-03-17T19:59:40.786Z,9.00
2023-03-17T20:02:14.006Z,7.93
2023-03-17T20:04:42.844Z,11.77
2023-03-17T20:07:11.262Z,11.23
2023-03-17T20:09:39.230Z,11.40
2023-03-17T20:12:07.089Z,13.05
2023-03-17T20:14:34.733Z,11.63
2023-03-17T20:17:02.321Z,12.88
2023-03-17T20:19:31.567Z,14.75
2023-03-17T20:21:59.119Z,15.70
2023-03-17T20:24:28.551Z,16.25
2023-03-17T20:26:57.872Z,14.80
2023-03-17T20:29:25.878Z,17.20
2023-03-17T20:31:53.814Z,14.02
2023-03-17T20:34:21.528Z,19.00
2023-03-17T20:36:51.802Z,15.95
2023-03-17T20:39:20.589Z,17.17
2023-03-17T20:41:48.925Z,13.88
2023-03-17T20:44:17.617Z,16.33
2023-03-17T20:46:45.703Z,15.50
2023-03-17T20:49:13.679Z,15.70
2023-03-17T20:51:41.379Z,14.25
2023-03-17T20:54:11.023Z,13.40
2023-03-17T20:56:39.576Z,15.85
2023-03-17T20:59:09.516Z,14.40
2023-03-17T21:01:38.999Z,14.65
2023-03-17T21:04:08.919Z,14.50
2023-03-17T21:06:36.649Z,12.15
2023-03-17T21:09:04.799Z,13.65
2023-03-17T21:11:33.666Z,16.33
2023-03-17T21:14:03.275Z,14.10
2023-03-17T21:16:31.301Z,10.88
2023-03-17T21:18:58.958Z,13.60
2023-03-17T21:21:27.213Z,10.23
2023-03-17T21:23:54.926Z,11.43
2023-03-17T21:26:22.908Z,12.02
2023-03-17T21:28:52.491Z,9.48
2023-03-17T21:31:20.219Z,10.18
2023-03-17T21:33:50.300Z,12.60
2023-03-17T21:36:18.449Z,12.50
2023-03-17T21:38:46.009Z,10.40
2023-03-17T21:41:30.232Z,10.50
2023-03-17T21:43:59.084Z,10.15
2023-03-17T21:46:26.896Z,14.25
2023-03-17T21:48:55.858Z,11.47
2023-03-17T21:51:24.269Z,12.63
2023-03-17T21:53:52.751Z,10.48
2023-03-17T21:56:20.758Z,9.30
2023-03-17T21:58:48.916Z,10.95
2023-03-17T22:01:18.951Z,12.50
2023-03-17T22:03:46.569Z,12.50
2023-03-17T22:06:15.542Z,10.68
2023-03-17T22:08:43.964Z,11.07
2023-03-17T22:11:14.089Z,10.15
2023-03-17T22:13:41.937Z,10.03
2023-03-17T22:16:10.130Z,10.18
2023-03-17T22:18:39.440Z,12.63
2023-03-17T22:21:08.076Z,9.95
2023-03-17T22:23:40.729Z,10.93
2023-03-17T22:26:09.605Z,11.13
2023-03-17T22:28:37.781Z,10.07
2023-03-17T22:31:11.932Z,10.75
2023-03-17T22:33:41.470Z,11.65
2023-03-17T22:36:09.740Z,9.95
2023-03-17T22:38:37.615Z,9.63
2023-03-17T22:41:07.708Z,11.02
2023-03-17T22:43:35.725Z,9.73
2023-03-17T22:46:03.632Z,10.60
2023-03-17T22:48:32.482Z,10.95
2023-03-17T22:51:03.055Z,9.63
2023-03-17T22:53:31.420Z,9.60
2023-03-17T22:55:59.138Z,9.27
2023-03-17T22:58:27.329Z,9.23
2023-03-17T23:00:56.187Z,9.18
2023-03-17T23:03:24.873Z,9.43
2023-03-17T23:05:54.361Z,9.43
2023-03-17T23:08:23.448Z,9.07
2023-03-17T23:10:52.039Z,10.45
2023-03-17T23:13:20.927Z,8.10
2023-03-17T23:15:49.055Z,12.00
2023-03-17T23:18:16.825Z,9.95
2023-03-17T23:20:44.504Z,12.55
2023-03-17T23:23:12.630Z,9.25
2023-03-17T23:25:41.872Z,12.25
2023-03-17T23:28:10.043Z,9.30
2023-03-17T23:30:38.485Z,9.60
2023-03-17T23:33:07.510Z,9.73
2023-03-17T23:35:35.654Z,9.82
2023-03-17T23:38:03.970Z,9.57
2023-03-17T23:40:32.500Z,10.03
2023-03-17T23:43:01.840Z,8.82
2023-03-17T23:45:29.426Z,8.10
2023-03-17T23:47:57.407Z,9.88
2023-03-17T23:50:25.036Z,9.65
2023-03-17T23:52:53.936Z,10.13
2023-03-17T23:55:21.739Z,9.02
2023-03-17T23:57:50.227Z,8.80
